TAN03 EGNX-EGNS
Flight info
| Callsign | TAN03 |
|---|---|
| Flight time | 0h 52m |
| Altitude | 10000 |
| Route | TNT UQ4 VABKA DCT WAL L10 KELLY |
| Aircraft | C414/L-SBDFGRY/S |
Departure
| Time | 2026-04-21 16:13 |
|---|---|
| Airport | East Midlands Airport (EGNX) |
Arrival
| Time | 2026-04-21 17:05 |
|---|---|
| Airport | Isle of Man Airport (EGNS) |
| Time | Latitude | Longitude | Altitude | Speed | Heading |
|---|---|---|---|---|---|
| 2026-04-21 15:38 | 52.82671 | -1.33914 | 295 ft | 0 kts | 59° |
| 2026-04-21 16:06 | 52.82679 | -1.33901 | 296 ft | 6 kts | 38° |
| 2026-04-21 16:06 | 52.82728 | -1.33810 | 296 ft | 15 kts | 63° |
| 2026-04-21 16:07 | 52.82788 | -1.33706 | 295 ft | 12 kts | 359° |
| 2026-04-21 16:07 | 52.82811 | -1.33711 | 295 ft | 7 kts | 349° |
| 2026-04-21 16:07 | 52.82864 | -1.33727 | 295 ft | 9 kts | 353° |
| 2026-04-21 16:07 | 52.82912 | -1.33843 | 299 ft | 14 kts | 267° |
| 2026-04-21 16:08 | 52.82907 | -1.34265 | 297 ft | 23 kts | 271° |
| 2026-04-21 16:08 | 52.82905 | -1.34504 | 298 ft | 20 kts | 268° |
| 2026-04-21 16:08 | 52.82900 | -1.34724 | 299 ft | 19 kts | 268° |
| 2026-04-21 16:09 | 52.82906 | -1.34906 | 302 ft | 8 kts | 303° |
| 2026-04-21 16:09 | 52.82908 | -1.34911 | 301 ft | 0 kts | 315° |
| 2026-04-21 16:09 | 52.82915 | -1.34921 | 301 ft | 9 kts | 319° |
| 2026-04-21 16:10 | 52.82922 | -1.34929 | 300 ft | 0 kts | 353° |
| 2026-04-21 16:11 | 52.82930 | -1.34931 | 300 ft | 9 kts | 353° |
| 2026-04-21 16:11 | 52.83030 | -1.34934 | 299 ft | 12 kts | 13° |
| 2026-04-21 16:11 | 52.83066 | -1.34841 | 298 ft | 9 kts | 92° |
| 2026-04-21 16:11 | 52.83066 | -1.34799 | 297 ft | 0 kts | 91° |
| 2026-04-21 16:12 | 52.83066 | -1.34798 | 297 ft | 1 kts | 91° |
| 2026-04-21 16:12 | 52.83072 | -1.34450 | 295 ft | 56 kts | 89° |
| 2026-04-21 16:13 | 52.83085 | -1.33602 | 350 ft | 84 kts | 89° |
| 2026-04-21 16:13 | 52.83097 | -1.32535 | 513 ft | 102 kts | 86° |
| 2026-04-21 16:13 | 52.83130 | -1.31294 | 800 ft | 113 kts | 84° |
| 2026-04-21 16:13 | 52.83104 | -1.29953 | 1118 ft | 121 kts | 93° |
| 2026-04-21 16:14 | 52.83015 | -1.28525 | 1438 ft | 127 kts | 92° |
| 2026-04-21 16:14 | 52.82924 | -1.27048 | 1741 ft | 130 kts | 92° |
| 2026-04-21 16:14 | 52.82945 | -1.25562 | 2031 ft | 129 kts | 77° |
| 2026-04-21 16:14 | 52.83300 | -1.24209 | 2321 ft | 130 kts | 60° |
| 2026-04-21 16:15 | 52.83963 | -1.23120 | 2598 ft | 136 kts | 40° |
| 2026-04-21 16:15 | 52.84845 | -1.22534 | 2878 ft | 143 kts | 20° |
| 2026-04-21 16:15 | 52.85883 | -1.22598 | 3159 ft | 155 kts | 356° |
| 2026-04-21 16:15 | 52.86858 | -1.23467 | 3430 ft | 170 kts | 328° |
| 2026-04-21 16:16 | 52.87605 | -1.25055 | 3718 ft | 178 kts | 313° |
| 2026-04-21 16:16 | 52.88323 | -1.26759 | 4005 ft | 178 kts | 314° |
| 2026-04-21 16:16 | 52.89035 | -1.28443 | 4297 ft | 179 kts | 313° |
| 2026-04-21 16:16 | 52.89750 | -1.30134 | 4579 ft | 180 kts | 313° |
| 2026-04-21 16:17 | 52.90468 | -1.31836 | 4870 ft | 180 kts | 312° |
| 2026-04-21 16:17 | 52.91191 | -1.33545 | 5162 ft | 182 kts | 312° |
| 2026-04-21 16:17 | 52.91920 | -1.35274 | 5442 ft | 184 kts | 312° |
| 2026-04-21 16:17 | 52.92654 | -1.37016 | 5723 ft | 185 kts | 311° |
| 2026-04-21 16:18 | 52.93391 | -1.38763 | 6004 ft | 186 kts | 311° |
| 2026-04-21 16:18 | 52.94131 | -1.40523 | 6294 ft | 186 kts | 310° |
| 2026-04-21 16:18 | 52.94873 | -1.42285 | 6584 ft | 187 kts | 310° |
| 2026-04-21 16:18 | 52.95617 | -1.44052 | 6870 ft | 188 kts | 311° |
| 2026-04-21 16:19 | 52.96367 | -1.45840 | 7138 ft | 189 kts | 311° |
| 2026-04-21 16:19 | 52.97114 | -1.47618 | 7408 ft | 188 kts | 310° |
| 2026-04-21 16:19 | 52.97850 | -1.49408 | 7690 ft | 188 kts | 309° |
| 2026-04-21 16:19 | 52.98582 | -1.51208 | 7969 ft | 189 kts | 310° |
| 2026-04-21 16:20 | 52.99323 | -1.53012 | 8245 ft | 190 kts | 310° |
| 2026-04-21 16:20 | 53.00081 | -1.54811 | 8517 ft | 189 kts | 310° |
| 2026-04-21 16:20 | 53.00846 | -1.56582 | 8801 ft | 188 kts | 311° |
| 2026-04-21 16:20 | 53.01606 | -1.58361 | 9079 ft | 190 kts | 310° |
| 2026-04-21 16:21 | 53.02366 | -1.60158 | 9371 ft | 190 kts | 309° |
| 2026-04-21 16:21 | 53.03140 | -1.61933 | 9665 ft | 190 kts | 310° |
| 2026-04-21 16:21 | 53.03918 | -1.63714 | 9959 ft | 190 kts | 309° |
| 2026-04-21 16:21 | 53.04737 | -1.65532 | 10003 ft | 203 kts | 310° |
| 2026-04-21 16:22 | 53.05312 | -1.66790 | 10006 ft | 210 kts | 310° |
| 2026-04-21 16:22 | 53.06528 | -1.69443 | 10002 ft | 221 kts | 311° |
| 2026-04-21 16:22 | 53.07464 | -1.71520 | 10003 ft | 227 kts | 310° |
| 2026-04-21 16:22 | 53.08091 | -1.72921 | 10005 ft | 230 kts | 310° |
| 2026-04-21 16:23 | 53.09053 | -1.75071 | 10007 ft | 232 kts | 310° |
| 2026-04-21 16:23 | 53.10040 | -1.77244 | 10003 ft | 233 kts | 311° |
| 2026-04-21 16:23 | 53.11003 | -1.79361 | 10006 ft | 233 kts | 311° |
| 2026-04-21 16:23 | 53.11995 | -1.81559 | 10000 ft | 236 kts | 310° |
| 2026-04-21 16:24 | 53.12971 | -1.83765 | 9995 ft | 238 kts | 310° |
| 2026-04-21 16:24 | 53.13954 | -1.85984 | 9997 ft | 238 kts | 310° |
| 2026-04-21 16:24 | 53.14938 | -1.88208 | 10004 ft | 238 kts | 309° |
| 2026-04-21 16:24 | 53.15930 | -1.90419 | 10005 ft | 238 kts | 310° |
| 2026-04-21 16:25 | 53.16921 | -1.92633 | 10006 ft | 238 kts | 309° |
| 2026-04-21 16:25 | 53.17917 | -1.94819 | 10004 ft | 236 kts | 310° |
| 2026-04-21 16:25 | 53.18869 | -1.97063 | 9985 ft | 239 kts | 299° |
| 2026-04-21 16:25 | 53.19177 | -1.99742 | 9983 ft | 237 kts | 262° |
| 2026-04-21 16:26 | 53.19207 | -2.02445 | 10008 ft | 234 kts | 287° |
| 2026-04-21 16:26 | 53.19844 | -2.04922 | 10008 ft | 232 kts | 295° |
| 2026-04-21 16:26 | 53.20380 | -2.07463 | 10003 ft | 233 kts | 286° |
| 2026-04-21 16:26 | 53.20752 | -2.10117 | 10001 ft | 236 kts | 283° |
| 2026-04-21 16:27 | 53.21130 | -2.12790 | 10004 ft | 236 kts | 285° |
| 2026-04-21 16:27 | 53.21542 | -2.15440 | 10002 ft | 236 kts | 285° |
| 2026-04-21 16:27 | 53.21952 | -2.18098 | 10001 ft | 237 kts | 284° |
| 2026-04-21 16:27 | 53.22347 | -2.20778 | 10001 ft | 238 kts | 285° |
| 2026-04-21 16:28 | 53.22755 | -2.23460 | 10003 ft | 239 kts | 285° |
| 2026-04-21 16:28 | 53.23166 | -2.26150 | 9989 ft | 240 kts | 285° |
| 2026-04-21 16:28 | 53.23574 | -2.28844 | 9999 ft | 238 kts | 284° |
| 2026-04-21 16:28 | 53.23975 | -2.31508 | 10000 ft | 236 kts | 284° |
| 2026-04-21 16:29 | 53.24376 | -2.34167 | 10001 ft | 235 kts | 284° |
| 2026-04-21 16:29 | 53.24771 | -2.36803 | 9998 ft | 234 kts | 284° |
| 2026-04-21 16:29 | 53.25166 | -2.39435 | 9997 ft | 234 kts | 284° |
| 2026-04-21 16:29 | 53.25563 | -2.42081 | 9992 ft | 236 kts | 284° |
| 2026-04-21 16:30 | 53.25960 | -2.44732 | 9994 ft | 235 kts | 284° |
| 2026-04-21 16:30 | 53.26357 | -2.47395 | 9992 ft | 236 kts | 284° |
| 2026-04-21 16:30 | 53.26752 | -2.50046 | 9996 ft | 234 kts | 284° |
| 2026-04-21 16:30 | 53.27140 | -2.52673 | 9995 ft | 232 kts | 284° |
| 2026-04-21 16:31 | 53.27517 | -2.55290 | 9999 ft | 231 kts | 284° |
| 2026-04-21 16:31 | 53.27909 | -2.57891 | 10008 ft | 231 kts | 285° |
| 2026-04-21 16:31 | 53.28303 | -2.60498 | 10004 ft | 232 kts | 284° |
| 2026-04-21 16:31 | 53.28692 | -2.63121 | 10001 ft | 233 kts | 284° |
| 2026-04-21 16:32 | 53.29079 | -2.65759 | 9999 ft | 234 kts | 284° |
| 2026-04-21 16:32 | 53.29470 | -2.68403 | 9997 ft | 234 kts | 284° |
| 2026-04-21 16:32 | 53.29871 | -2.71051 | 9994 ft | 236 kts | 285° |
| 2026-04-21 16:32 | 53.30273 | -2.73707 | 9995 ft | 235 kts | 288° |
| 2026-04-21 16:33 | 53.30837 | -2.76271 | 9995 ft | 236 kts | 292° |
| 2026-04-21 16:33 | 53.31422 | -2.78830 | 9995 ft | 236 kts | 292° |
| 2026-04-21 16:33 | 53.31999 | -2.81393 | 10011 ft | 234 kts | 292° |
| 2026-04-21 16:33 | 53.32574 | -2.83941 | 10011 ft | 233 kts | 292° |
| 2026-04-21 16:34 | 53.33146 | -2.86479 | 10011 ft | 233 kts | 292° |
| 2026-04-21 16:34 | 53.33717 | -2.89014 | 10008 ft | 234 kts | 292° |
| 2026-04-21 16:34 | 53.34293 | -2.91559 | 10008 ft | 233 kts | 292° |
| 2026-04-21 16:34 | 53.34865 | -2.94096 | 10007 ft | 233 kts | 292° |
| 2026-04-21 16:35 | 53.35436 | -2.96628 | 10009 ft | 232 kts | 292° |
| 2026-04-21 16:35 | 53.36005 | -2.99157 | 10010 ft | 232 kts | 292° |
| 2026-04-21 16:35 | 53.36570 | -3.01688 | 10008 ft | 232 kts | 291° |
| 2026-04-21 16:35 | 53.37138 | -3.04223 | 10004 ft | 233 kts | 292° |
| 2026-04-21 16:36 | 53.37710 | -3.06777 | 9999 ft | 235 kts | 292° |
| 2026-04-21 16:36 | 53.38291 | -3.09338 | 10006 ft | 236 kts | 292° |
| 2026-04-21 16:36 | 53.38867 | -3.11907 | 10004 ft | 236 kts | 291° |
| 2026-04-21 16:36 | 53.39589 | -3.14353 | 10005 ft | 233 kts | 308° |
| 2026-04-21 16:37 | 53.40550 | -3.16541 | 10003 ft | 233 kts | 308° |
| 2026-04-21 16:37 | 53.41494 | -3.18778 | 10003 ft | 232 kts | 307° |
| 2026-04-21 16:37 | 53.42427 | -3.20984 | 10002 ft | 232 kts | 308° |
| 2026-04-21 16:37 | 53.43369 | -3.23193 | 10000 ft | 233 kts | 308° |
| 2026-04-21 16:38 | 53.44303 | -3.25408 | 9995 ft | 233 kts | 308° |
| 2026-04-21 16:38 | 53.45244 | -3.27616 | 9995 ft | 232 kts | 308° |
| 2026-04-21 16:38 | 53.46185 | -3.29813 | 9995 ft | 232 kts | 308° |
| 2026-04-21 16:38 | 53.47115 | -3.32020 | 9991 ft | 231 kts | 308° |
| 2026-04-21 16:39 | 53.48056 | -3.34206 | 9990 ft | 231 kts | 308° |
| 2026-04-21 16:39 | 53.48989 | -3.36399 | 9989 ft | 231 kts | 308° |
| 2026-04-21 16:39 | 53.49915 | -3.38603 | 9985 ft | 232 kts | 306° |
| 2026-04-21 16:39 | 53.50816 | -3.40854 | 9990 ft | 233 kts | 308° |
| 2026-04-21 16:40 | 53.51773 | -3.43046 | 9995 ft | 232 kts | 310° |
| 2026-04-21 16:40 | 53.52733 | -3.45232 | 9995 ft | 232 kts | 308° |
| 2026-04-21 16:40 | 53.53661 | -3.47460 | 9994 ft | 232 kts | 307° |
| 2026-04-21 16:40 | 53.54592 | -3.49677 | 9993 ft | 232 kts | 308° |
| 2026-04-21 16:41 | 53.55534 | -3.51897 | 9992 ft | 233 kts | 308° |
| 2026-04-21 16:41 | 53.56476 | -3.54124 | 9987 ft | 234 kts | 308° |
| 2026-04-21 16:41 | 53.57411 | -3.56371 | 9986 ft | 234 kts | 308° |
| 2026-04-21 16:41 | 53.58344 | -3.58611 | 9989 ft | 233 kts | 308° |
| 2026-04-21 16:42 | 53.59288 | -3.60835 | 9988 ft | 233 kts | 308° |
| 2026-04-21 16:42 | 53.60226 | -3.63060 | 9996 ft | 232 kts | 308° |
| 2026-04-21 16:42 | 53.61163 | -3.65270 | 9991 ft | 231 kts | 307° |
| 2026-04-21 16:42 | 53.62100 | -3.67476 | 9988 ft | 232 kts | 307° |
| 2026-04-21 16:43 | 53.63008 | -3.69730 | 9989 ft | 232 kts | 306° |
| 2026-04-21 16:43 | 53.63929 | -3.71954 | 9993 ft | 231 kts | 307° |
| 2026-04-21 16:43 | 53.64865 | -3.74148 | 9987 ft | 231 kts | 307° |
| 2026-04-21 16:43 | 53.65792 | -3.76360 | 9987 ft | 230 kts | 307° |
| 2026-04-21 16:44 | 53.66712 | -3.78568 | 9987 ft | 230 kts | 307° |
| 2026-04-21 16:44 | 53.67737 | -3.80610 | 9986 ft | 225 kts | 334° |
| 2026-04-21 16:44 | 53.68526 | -3.79480 | 9926 ft | 181 kts | 78° |
| 2026-04-21 16:44 | 53.69533 | -3.78245 | 9987 ft | 205 kts | 8° |
| 2026-04-21 16:45 | 53.70876 | -3.79179 | 9987 ft | 222 kts | 319° |
| 2026-04-21 16:45 | 53.71567 | -3.81507 | 9983 ft | 227 kts | 277° |
| 2026-04-21 16:45 | 53.71608 | -3.84153 | 10000 ft | 226 kts | 278° |
| 2026-04-21 16:45 | 53.72126 | -3.86664 | 10003 ft | 228 kts | 295° |
| 2026-04-21 16:46 | 53.72815 | -3.89081 | 10003 ft | 229 kts | 301° |
| 2026-04-21 16:46 | 53.73674 | -3.91359 | 10001 ft | 229 kts | 306° |
| 2026-04-21 16:46 | 53.74535 | -3.93636 | 10001 ft | 231 kts | 303° |
| 2026-04-21 16:46 | 53.75352 | -3.95968 | 10001 ft | 231 kts | 302° |
| 2026-04-21 16:47 | 53.76171 | -3.98305 | 9996 ft | 231 kts | 302° |
| 2026-04-21 16:47 | 53.76979 | -4.00656 | 9996 ft | 231 kts | 302° |
| 2026-04-21 16:47 | 53.77796 | -4.02996 | 9995 ft | 231 kts | 302° |
| 2026-04-21 16:47 | 53.78618 | -4.05330 | 10005 ft | 231 kts | 302° |
| 2026-04-21 16:48 | 53.79436 | -4.07665 | 10005 ft | 231 kts | 302° |
| 2026-04-21 16:48 | 53.80252 | -4.10002 | 10004 ft | 230 kts | 302° |
| 2026-04-21 16:48 | 53.81065 | -4.12339 | 10004 ft | 230 kts | 302° |
| 2026-04-21 16:48 | 53.81880 | -4.14677 | 10004 ft | 231 kts | 302° |
| 2026-04-21 16:49 | 53.82695 | -4.17020 | 10003 ft | 231 kts | 302° |
| 2026-04-21 16:49 | 53.83554 | -4.19311 | 10001 ft | 230 kts | 307° |
| 2026-04-21 16:49 | 53.84479 | -4.21537 | 10001 ft | 231 kts | 307° |
| 2026-04-21 16:49 | 53.85394 | -4.23779 | 10002 ft | 231 kts | 307° |
| 2026-04-21 16:50 | 53.86305 | -4.26012 | 10004 ft | 230 kts | 307° |
| 2026-04-21 16:50 | 53.87231 | -4.28227 | 10013 ft | 230 kts | 307° |
| 2026-04-21 16:50 | 53.88132 | -4.30468 | 10009 ft | 231 kts | 306° |
| 2026-04-21 16:50 | 53.89030 | -4.32724 | 10009 ft | 231 kts | 307° |
| 2026-04-21 16:51 | 53.89966 | -4.35001 | 9743 ft | 241 kts | 307° |
| 2026-04-21 16:51 | 53.91054 | -4.37173 | 9438 ft | 243 kts | 322° |
| 2026-04-21 16:51 | 53.92362 | -4.39014 | 9111 ft | 243 kts | 323° |
| 2026-04-21 16:51 | 53.93641 | -4.40875 | 8797 ft | 241 kts | 322° |
| 2026-04-21 16:52 | 53.94906 | -4.42726 | 8486 ft | 238 kts | 323° |
| 2026-04-21 16:52 | 53.96153 | -4.44541 | 8176 ft | 234 kts | 323° |
| 2026-04-21 16:52 | 53.96988 | -4.45752 | 7969 ft | 233 kts | 323° |
| 2026-04-21 16:52 | 53.98611 | -4.48114 | 7564 ft | 231 kts | 323° |
| 2026-04-21 16:53 | 53.99827 | -4.49885 | 7261 ft | 230 kts | 323° |
| 2026-04-21 16:53 | 54.01044 | -4.51658 | 6815 ft | 230 kts | 324° |
| 2026-04-21 16:53 | 54.02249 | -4.53418 | 6289 ft | 227 kts | 324° |
| 2026-04-21 16:53 | 54.03441 | -4.55160 | 5767 ft | 224 kts | 324° |
| 2026-04-21 16:54 | 54.04620 | -4.56886 | 5254 ft | 223 kts | 325° |
| 2026-04-21 16:54 | 54.05794 | -4.58601 | 4728 ft | 222 kts | 326° |
| 2026-04-21 16:54 | 54.06955 | -4.60304 | 4207 ft | 219 kts | 326° |
| 2026-04-21 16:54 | 54.08103 | -4.61985 | 3670 ft | 217 kts | 327° |
| 2026-04-21 16:55 | 54.09091 | -4.63949 | 3096 ft | 225 kts | 300° |
| 2026-04-21 16:55 | 54.09289 | -4.66515 | 2883 ft | 213 kts | 257° |
| 2026-04-21 16:55 | 54.08912 | -4.67994 | 2882 ft | 193 kts | 227° |
| 2026-04-21 16:55 | 54.08141 | -4.69737 | 2904 ft | 181 kts | 233° |
| 2026-04-21 16:56 | 54.07512 | -4.71534 | 2903 ft | 173 kts | 233° |
| 2026-04-21 16:56 | 54.06897 | -4.73258 | 2902 ft | 168 kts | 233° |
| 2026-04-21 16:56 | 54.06265 | -4.74885 | 2911 ft | 163 kts | 229° |
| 2026-04-21 16:56 | 54.05626 | -4.76478 | 2909 ft | 166 kts | 229° |
| 2026-04-21 16:57 | 54.04951 | -4.78149 | 2892 ft | 178 kts | 229° |
| 2026-04-21 16:57 | 54.04203 | -4.79969 | 2646 ft | 196 kts | 229° |
| 2026-04-21 16:57 | 54.03343 | -4.81841 | 2359 ft | 205 kts | 223° |
| 2026-04-21 16:57 | 54.02381 | -4.83680 | 2073 ft | 210 kts | 222° |
| 2026-04-21 16:58 | 54.01420 | -4.85503 | 2007 ft | 202 kts | 222° |
| 2026-04-21 16:58 | 54.00505 | -4.87254 | 2001 ft | 195 kts | 222° |
| 2026-04-21 16:58 | 53.99651 | -4.89010 | 1993 ft | 194 kts | 236° |
| 2026-04-21 16:58 | 53.99418 | -4.91242 | 1993 ft | 195 kts | 284° |
| 2026-04-21 16:59 | 54.00067 | -4.93126 | 2002 ft | 179 kts | 332° |
| 2026-04-21 16:59 | 54.01144 | -4.93675 | 2011 ft | 155 kts | 19° |
| 2026-04-21 16:59 | 54.02174 | -4.93167 | 2008 ft | 158 kts | 30° |
| 2026-04-21 16:59 | 54.03242 | -4.92537 | 2007 ft | 166 kts | 30° |
| 2026-04-21 17:00 | 54.04348 | -4.91857 | 2012 ft | 171 kts | 30° |
| 2026-04-21 17:00 | 54.05467 | -4.91101 | 2021 ft | 171 kts | 39° |
| 2026-04-21 17:00 | 54.06014 | -4.90178 | 2022 ft | 162 kts | 66° |
| 2026-04-21 17:00 | 54.06212 | -4.87721 | 2021 ft | 160 kts | 87° |
| 2026-04-21 17:01 | 54.06294 | -4.85828 | 2016 ft | 161 kts | 85° |
| 2026-04-21 17:01 | 54.06428 | -4.83916 | 2020 ft | 161 kts | 84° |
| 2026-04-21 17:01 | 54.06568 | -4.82063 | 2018 ft | 151 kts | 83° |
| 2026-04-21 17:01 | 54.06717 | -4.80375 | 2007 ft | 139 kts | 83° |
| 2026-04-21 17:02 | 54.06851 | -4.78793 | 1996 ft | 131 kts | 82° |
| 2026-04-21 17:02 | 54.06974 | -4.77341 | 1981 ft | 125 kts | 83° |
| 2026-04-21 17:02 | 54.07103 | -4.75809 | 1797 ft | 132 kts | 83° |
| 2026-04-21 17:02 | 54.07238 | -4.74213 | 1572 ft | 139 kts | 83° |
| 2026-04-21 17:03 | 54.07373 | -4.72574 | 1345 ft | 138 kts | 83° |
| 2026-04-21 17:03 | 54.07499 | -4.71088 | 1144 ft | 116 kts | 82° |
| 2026-04-21 17:03 | 54.07598 | -4.69926 | 965 ft | 80 kts | 82° |
| 2026-04-21 17:03 | 54.07670 | -4.69106 | 831 ft | 66 kts | 81° |
| 2026-04-21 17:04 | 54.07726 | -4.68272 | 566 ft | 78 kts | 84° |
| 2026-04-21 17:04 | 54.07818 | -4.67326 | 452 ft | 83 kts | 82° |
| 2026-04-21 17:04 | 54.07905 | -4.66329 | 423 ft | 86 kts | 76° |
| 2026-04-21 17:04 | 54.07997 | -4.65259 | 315 ft | 95 kts | 80° |
| 2026-04-21 17:05 | 54.08113 | -4.64162 | 177 ft | 92 kts | 79° |
| 2026-04-21 17:05 | 54.08236 | -4.63145 | 61 ft | 80 kts | 78° |
| 2026-04-21 17:05 | 54.08328 | -4.62384 | 41 ft | 54 kts | 78° |
| 2026-04-21 17:05 | 54.08399 | -4.61832 | 40 ft | 48 kts | 78° |
| 2026-04-21 17:06 | 54.08457 | -4.61448 | 39 ft | 17 kts | 40° |
| 2026-04-21 17:06 | 54.08530 | -4.61523 | 40 ft | 16 kts | 276° |
| 2026-04-21 17:06 | 54.08549 | -4.61780 | 40 ft | 23 kts | 277° |
| 2026-04-21 17:06 | 54.08564 | -4.62029 | 41 ft | 20 kts | 277° |
| 2026-04-21 17:07 | 54.08583 | -4.62240 | 43 ft | 17 kts | 279° |
| 2026-04-21 17:07 | 54.08597 | -4.62423 | 43 ft | 15 kts | 276° |
| 2026-04-21 17:07 | 54.08609 | -4.62634 | 43 ft | 23 kts | 276° |
| 2026-04-21 17:07 | 54.08630 | -4.62905 | 42 ft | 22 kts | 276° |
| 2026-04-21 17:08 | 54.08621 | -4.63097 | 40 ft | 15 kts | 256° |
| 2026-04-21 17:08 | 54.08563 | -4.63238 | 40 ft | 13 kts | 229° |
| 2026-04-21 17:08 | 54.08542 | -4.63368 | 40 ft | 11 kts | 275° |
| 2026-04-21 17:08 | 54.08573 | -4.63454 | 40 ft | 7 kts | 292° |
| 2026-04-21 17:09 | 54.08551 | -4.63486 | 40 ft | 0 kts | 40° |
| 2026-04-21 17:12 | 54.08625 | -4.63383 | 41 ft | 0 kts | 40° |